Time;durP1;ratioP1;P1;durP2;ratioP2;P2;SDS_P1;SDS_P2;PMS_P1;PMS_P2;Temp;Humidity;BMP_temperature;BMP_pressure;BME280_temperature;BME280_humidity;BME280_pressure;Samples;Min_cycle;Max_cycle;Signal;HPM_P1;HPM_P2
2023/12/31 08:56:57;;;;;;;4.90;2.55;;;;;;;;;;2097854;27;20553;-77
2023/12/31 08:57:58;;;;;;;5.50;2.00;;;;;;;;;;2089727;28;20216;-77
2023/12/31 09:08:51;;;;;;;3.75;1.80;;;;;;;;;;2083666;28;20565;-66
2023/12/31 09:17:23;;;;;;;3.60;1.60;;;;;;;;;;2086336;28;21300;-62
2023/12/31 09:18:24;;;;;;;5.22;1.80;;;;;;;;;;2082153;28;20202;-63
2023/12/31 09:19:26;;;;;;;4.25;1.83;;;;;;;;;;2081157;28;20200;-64
2023/12/31 09:26:32;;;;;;;3.60;1.33;;;;;;;;;;2114760;27;20518;-66
2023/12/31 09:27:43;;;;;;;3.35;1.98;;;;;;;;;;2086893;28;20216;-65
2023/12/31 09:34:07;;;;;;;6.13;1.55;;;;;;;;;;2090586;27;20556;-63
2023/12/31 09:35:08;;;;;;;2.35;1.23;;;;;;;;;;2089964;28;20212;-63
2023/12/31 09:36:10;;;;;;;2.95;1.45;;;;;;;;;;2091507;28;20189;-63
2023/12/31 09:37:19;;;;;;;3.60;1.65;;;;;;;;;;2082724;28;20250;-63
2023/12/31 09:38:20;;;;;;;2.67;1.58;;;;;;;;;;2072613;28;20238;-63
2023/12/31 09:39:22;;;;;;;3.30;1.42;;;;;;;;;;2073328;28;20202;-64
2023/12/31 09:40:23;;;;;;;1.98;1.15;;;;;;;;;;2073788;28;20193;-63
2023/12/31 09:41:25;;;;;;;3.13;1.40;;;;;;;;;;2071200;28;20198;-64
2023/12/31 09:42:48;;;;;;;2.20;1.20;;;;;;;;;;2072192;28;20226;-64
2023/12/31 09:43:54;;;;;;;3.22;1.35;;;;;;;;;;2073675;28;20229;-64
2023/12/31 09:44:56;;;;;;;3.08;1.20;;;;;;;;;;2073932;28;20692;-64
2023/12/31 09:45:58;;;;;;;2.60;1.00;;;;;;;;;;2070521;28;20882;-64
2023/12/31 09:47:03;;;;;;;3.13;1.20;;;;;;;;;;2069934;28;20209;-64
2023/12/31 09:48:13;;;;;;;3.45;1.20;;;;;;;;;;2072322;28;20205;-63
2023/12/31 09:49:14;;;;;;;2.10;1.10;;;;;;;;;;2074034;28;20232;-64
2023/12/31 09:50:18;;;;;;;2.30;1.27;;;;;;;;;;2073755;28;20917;-64
2023/12/31 09:51:20;;;;;;;2.72;1.27;;;;;;;;;;2072164;28;20194;-64
2023/12/31 09:52:22;;;;;;;2.80;1.10;;;;;;;;;;2071690;28;20258;-63
2023/12/31 09:53:24;;;;;;;2.95;1.20;;;;;;;;;;2069767;28;20198;-64
2023/12/31 09:54:26;;;;;;;5.30;1.40;;;;;;;;;;2072050;28;20197;-64
2023/12/31 09:55:28;;;;;;;2.13;1.30;;;;;;;;;;2073465;28;20801;-64
2023/12/31 09:56:30;;;;;;;2.67;1.35;;;;;;;;;;2073383;28;20259;-64
2023/12/31 09:57:34;;;;;;;2.65;1.48;;;;;;;;;;2070867;28;20225;-64
2023/12/31 09:58:36;;;;;;;2.60;1.25;;;;;;;;;;2073665;28;20199;-64
2023/12/31 09:59:38;;;;;;;2.15;1.13;;;;;;;;;;2074238;28;20194;-64
2023/12/31 10:00:39;;;;;;;3.67;1.27;;;;;;;;;;2073453;28;20197;-65
2023/12/31 10:01:42;;;;;;;3.78;1.48;;;;;;;;;;2073196;28;20542;-63
2023/12/31 10:02:44;;;;;;;2.28;1.00;;;;;;;;;;2073672;28;20249;-63
2023/12/31 10:11:20;;;;;;;2.13;1.10;;;;;;;;;;2084646;28;20560;-64
2023/12/31 10:19:02;;;;;;;2.80;1.25;;;;;;;;;;2100353;27;20569;-64
2023/12/31 10:24:03;;;;;;;3.47;1.50;;;;;;;;;;2109846;27;20548;-70
2023/12/31 10:29:27;;;;;;;2.63;0.90;;;;;;;;;;2091423;27;20560;-72
2023/12/31 10:35:01;;;;;;;3.22;1.13;;;;;;;;;;2090634;28;20586;-69
2023/12/31 10:36:06;;;;;;;2.20;1.10;;;;;;;;;;2088166;28;20192;-71
2023/12/31 10:42:29;;;;;;;3.78;1.38;;;;;;;;;;2085953;28;20579;-69
2023/12/31 10:43:32;;;;;;;3.35;1.35;;;;;;;;;;2081230;28;20182;-71
2023/12/31 10:50:52;;;;;;;2.65;1.25;;;;;;;;;;2082440;28;20905;-70
2023/12/31 10:51:54;;;;;;;2.95;1.10;;;;;;;;;;2089902;28;20379;-71
2023/12/31 10:59:06;;;;;;;4.45;1.38;;;;;;;;;;2082487;28;20577;-72
2023/12/31 11:05:24;;;;;;;3.22;1.67;;;;;;;;;;2083713;28;21141;-71
2023/12/31 11:06:26;;;;;;;3.97;1.75;;;;;;;;;;2085738;28;20205;-70
2023/12/31 11:13:08;;;;;;;2.72;1.30;;;;;;;;;;2099909;27;20546;-64
